エル・アルト国際空港の過去48時間の天気

エル・アルト国際空港 (La Paz / Alto)

現在時刻: 5/25 22:23 -04 (5/26 02:23 UTC) 以下の時間は現地時間です。

過去48時間のMETAR気象情報
時間 風向 風速(m/s) 視程 気温(℃) 湿度(%) 気圧(hPa) 天気現象
25 22:00 3 10km以上 1 93 1039
25 21:00 4 10km以上 2 87 1038
25 20:00 4 10km以上 3 70 1037
25 19:00 3 10km以上 4 52 1036
25 18:00 北西 4 10km以上 11 20 1035
25 17:00 西北西 5 10km以上 13 15 1035
25 16:00 西 5 10km以上 14 17 1035
25 15:00 西北西 5 10km以上 14 18 1035
25 14:00 西 5 10km以上 14 18 1037
25 13:00 西 4 10km以上 14 19 1038
25 12:00 西南西 3 10km以上 13 22 1038
25 11:00 西 4 10km以上 10 30 1039
25 10:00 西 3 10km以上 8 34 1039
25 09:00 西 2 10km以上 6 36 1039
25 08:00 不定 1 10km以上 1 47 1038
25 07:00 不定 1 10km以上 -2 54 1038
25 06:00 不定 1 10km以上 -1 47 1037
25 05:00 3 10km以上 1 40 1037
25 04:00 3 10km以上 0 43 1037
25 03:00 3 10km以上 0 51 1037
25 02:00 北北東 2 10km以上 -4 68 1037
25 01:00 静穏 0 10km以上 -3 93 1037
25 00:00 東南東 2 10km以上 0 86 1037
24 23:00 4 10km以上 0 80 1037
24 22:00 東北東 4 10km以上 -1 64 1036
24 21:00 3 10km以上 1 40 1036
24 20:00 東北東 3 10km以上 3 35 1036
24 19:00 北西 3 10km以上 9 18 1035
24 18:00 西 4 10km以上 11 13 1035
24 17:00 西北西 4 10km以上 14 12 1034
24 16:00 西 5 10km以上 14 9 1034
24 15:00 北西 4 10km以上 15 10 1035
24 14:00 西北西 5 10km以上 14 9 1036
24 13:00 西 5 10km以上 14 10 1037
24 12:00 西 3 10km以上 13 11 1038
24 11:00 西 5 10km以上 11 20 1038
24 10:00 西 4 10km以上 8 31 1038
24 09:00 西北西 3 10km以上 6 26 1038
24 08:00 不定 1 10km以上 2 35 1037
24 07:00 静穏 0 10km以上 -2 54 1036
24 06:00 不定 1 10km以上 -1 37 1036
24 05:00 3 10km以上 0 34 1035
24 04:00 北北東 2 10km以上 -3 42 1035
24 03:00 不定 1 10km以上 -3 42 1036
24 02:00 3 10km以上 0 34 1036
24 01:00 2 10km以上 -3 46 1037
24 00:00 北東 2 10km以上 -3 59 1037
23 23:00 3 10km以上 -2 46 1037
SLLP 260200Z 08006KT 9999 FEW008 BKN200 01/M00 Q1039
SLLP 260100Z 08007KT 9999 FEW070 BKN200 02/M00 Q1038
SLLP 260000Z 08007KT 9999 FEW070 BKN200 03/M02 Q1037
SLLP 252300Z 09006KT 9999 FEW070 BKN200 04/M05 Q1036 A3061 627. 1 HR50 NOSIG
SLLP 252200Z 32007KT 9999 FEW017 BKN200 11/M11 Q1035
SLLP 252100Z 30010KT 9999 FEW020 BKN200 13/M13 Q1035
SLLP 252000Z 28010KT 9999 FEW020 BKN200 14/M11 Q1035
SLLP 251900Z 29009KT 9999 FEW020 BKN200 14/M10 Q1035
SLLP 251800Z 28009KT 240V320 9999 FEW020 BKN200 14/M10 Q1037
SLLP 251700Z 28008KT 9999 FEW017 BKN200 14/M09 Q1038
SLLP 251600Z 25006KT 9999 FEW017 BKN200 13/M08 Q1038
SLLP 251500Z 26007KT 9999 NSC 10/M07 Q1039
SLLP 251400Z 26006KT 9999 FEW070 BKN200 08/M07 Q1039
SLLP 251300Z 27004KT 9999 FEW070 BKN200 06/M08 Q1039
SLLP 251200Z VRB02KT 9999 FEW070 BKN200 01/M09 Q1038
SLLP 251100Z VRB02KT 9999 FEW070 BKN200 M02/M10 Q1038
SLLP 251000Z VRB02KT 9999 NSC M01/M11 Q1037
SLLP 250900Z 36006KT 9999 NSC 01/M11 Q1037
SLLP 250800Z 01006KT 9999 NSC 00/M11 Q1037
SLLP 250700Z 01006KT 9999 NSC 00/M09 Q1037
SLLP 250600Z 03004KT 9999 NSC M04/M09 Q1037
SLLP 250500Z 00000KT 9999 NSC M03/M04 Q1037
SLLP 250400Z 11004KT 9999 NSC 00/M02 Q1037
SLLP 250300Z 08008KT 9999 NSC 00/M03 Q1037
SLLP 250200Z 06007KT 9999 NSC M01/M07 Q1036
SLLP 250100Z 08006KT 9999 NSC 01/M11 Q1036
SLLP 250000Z 06006KT 9999 NSC 03/M11 Q1036
SLLP 242300Z 31006KT 9999 NSC 09/M14 Q1035
SLLP 242200Z 28007KT 9999 NSC 11/M16 Q1035
SLLP 242100Z 29007KT 9999 FEW023 14/M15 Q1034
SLLP 242000Z 26009KT 210V320 9999 FEW023 14/M18 Q1034
SLLP 241900Z 32008KT 9999 FEW023 15/M17 Q1035
SLLP 241800Z 29009KT 9999 FEW023 14/M19 Q1036
SLLP 241700Z 27009KT 9999 FEW023 14/M17 Q1037
SLLP 241600Z 27006KT 9999 FEW020 13/M17 Q1038
SLLP 241500Z 27009KT 9999 NSC 11/M11 Q1038
SLLP 241400Z 26007KT 9999 NSC 08/M08 Q1038
SLLP 241300Z 29005KT 9999 NSC 06/M12 Q1038
SLLP 241200Z VRB02KT 9999 NSC 02/M12 Q1037
SLLP 241100Z 00000KT 9999 NSC M02/M10 Q1036
SLLP 241000Z VRB02KT 9999 NSC M01/M14 Q1036
SLLP 240900Z 01006KT 9999 NSC 00/M14 Q1035
SLLP 240800Z 02003KT 9999 NSC M03/M14 Q1035
SLLP 240700Z VRB02KT 9999 NSC M03/M14 Q1036
SLLP 240600Z 36005KT 9999 NSC 00/M14 Q1036
SLLP 240500Z 01003KT 9999 NSC M03/M13 Q1037
SLLP 240400Z 05003KT 9999 NSC M03/M10 Q1037
SLLP 240300Z 09006KT 9999 NSC M02/M12 Q1037